sensor_id;sensor_type;location;lat;lon;timestamp;temperature;humidity
70734;DHT22;58320;48.804;9.252;2022-07-12T00:02:01;16.40;73.40
70734;DHT22;58320;48.804;9.252;2022-07-12T00:04:27;16.30;73.50
70734;DHT22;58320;48.804;9.252;2022-07-12T00:06:54;16.20;73.80
70734;DHT22;58320;48.804;9.252;2022-07-12T00:09:20;16.20;74.10
70734;DHT22;58320;48.804;9.252;2022-07-12T00:11:46;16.10;74.20
70734;DHT22;58320;48.804;9.252;2022-07-12T00:14:12;16.10;74.40
70734;DHT22;58320;48.804;9.252;2022-07-12T00:16:39;16.00;74.60
70734;DHT22;58320;48.804;9.252;2022-07-12T00:19:05;16.00;74.90
70734;DHT22;58320;48.804;9.252;2022-07-12T00:21:31;15.90;75.10
70734;DHT22;58320;48.804;9.252;2022-07-12T00:23:57;15.90;75.20
70734;DHT22;58320;48.804;9.252;2022-07-12T00:26:22;15.90;75.50
70734;DHT22;58320;48.804;9.252;2022-07-12T00:28:48;15.90;75.80
70734;DHT22;58320;48.804;9.252;2022-07-12T00:31:14;15.90;75.90
70734;DHT22;58320;48.804;9.252;2022-07-12T00:33:40;15.90;76.10
70734;DHT22;58320;48.804;9.252;2022-07-12T00:36:06;15.80;76.10
70734;DHT22;58320;48.804;9.252;2022-07-12T00:38:33;15.80;76.10
70734;DHT22;58320;48.804;9.252;2022-07-12T00:40:58;15.80;76.40
70734;DHT22;58320;48.804;9.252;2022-07-12T00:43:24;15.80;76.80
70734;DHT22;58320;48.804;9.252;2022-07-12T00:45:50;15.70;77.00
70734;DHT22;58320;48.804;9.252;2022-07-12T00:48:17;15.70;77.00
70734;DHT22;58320;48.804;9.252;2022-07-12T00:50:45;15.70;77.20
70734;DHT22;58320;48.804;9.252;2022-07-12T00:53:13;15.70;77.10
70734;DHT22;58320;48.804;9.252;2022-07-12T00:55:40;15.70;77.00
70734;DHT22;58320;48.804;9.252;2022-07-12T00:58:06;15.80;77.10
70734;DHT22;58320;48.804;9.252;2022-07-12T01:00:32;15.80;77.10
70734;DHT22;58320;48.804;9.252;2022-07-12T01:03:01;15.80;77.00
70734;DHT22;58320;48.804;9.252;2022-07-12T01:05:28;15.80;76.90
70734;DHT22;58320;48.804;9.252;2022-07-12T01:07:56;15.90;77.20
70734;DHT22;58320;48.804;9.252;2022-07-12T01:10:22;15.80;77.10
70734;DHT22;58320;48.804;9.252;2022-07-12T01:12:49;15.80;77.20
70734;DHT22;58320;48.804;9.252;2022-07-12T01:15:16;15.80;77.10
70734;DHT22;58320;48.804;9.252;2022-07-12T01:17:44;15.80;77.20
70734;DHT22;58320;48.804;9.252;2022-07-12T01:20:10;15.80;77.10
70734;DHT22;58320;48.804;9.252;2022-07-12T01:22:39;15.80;77.10
70734;DHT22;58320;48.804;9.252;2022-07-12T01:25:09;15.90;77.10
70734;DHT22;58320;48.804;9.252;2022-07-12T01:27:38;15.90;76.90
70734;DHT22;58320;48.804;9.252;2022-07-12T01:30:04;15.90;76.70
70734;DHT22;58320;48.804;9.252;2022-07-12T01:32:31;16.00;76.60
70734;DHT22;58320;48.804;9.252;2022-07-12T01:34:58;16.00;76.60
70734;DHT22;58320;48.804;9.252;2022-07-12T01:37:33;16.00;76.60
70734;DHT22;58320;48.804;9.252;2022-07-12T01:40:10;16.00;76.40
70734;DHT22;58320;48.804;9.252;2022-07-12T01:42:38;16.00;76.40
70734;DHT22;58320;48.804;9.252;2022-07-12T01:45:05;15.90;76.80
70734;DHT22;58320;48.804;9.252;2022-07-12T01:47:33;15.90;76.90
70734;DHT22;58320;48.804;9.252;2022-07-12T01:49:59;15.90;77.10
70734;DHT22;58320;48.804;9.252;2022-07-12T01:52:26;15.80;77.40
70734;DHT22;58320;48.804;9.252;2022-07-12T01:54:53;15.80;77.90
70734;DHT22;58320;48.804;9.252;2022-07-12T01:57:20;15.70;78.00
70734;DHT22;58320;48.804;9.252;2022-07-12T01:59:46;15.60;78.10
70734;DHT22;58320;48.804;9.252;2022-07-12T02:02:12;15.60;78.30
70734;DHT22;58320;48.804;9.252;2022-07-12T02:04:38;15.50;78.60
70734;DHT22;58320;48.804;9.252;2022-07-12T02:07:05;15.40;78.80
70734;DHT22;58320;48.804;9.252;2022-07-12T02:09:31;15.40;79.10
70734;DHT22;58320;48.804;9.252;2022-07-12T02:11:57;15.30;79.40
70734;DHT22;58320;48.804;9.252;2022-07-12T02:14:23;15.30;79.60
70734;DHT22;58320;48.804;9.252;2022-07-12T02:16:50;15.20;79.70
70734;DHT22;58320;48.804;9.252;2022-07-12T02:19:16;15.10;79.70
70734;DHT22;58320;48.804;9.252;2022-07-12T02:21:42;15.10;79.70
70734;DHT22;58320;48.804;9.252;2022-07-12T02:24:08;15.00;80.00
70734;DHT22;58320;48.804;9.252;2022-07-12T02:26:35;14.90;80.20
70734;DHT22;58320;48.804;9.252;2022-07-12T02:29:03;14.80;80.70
70734;DHT22;58320;48.804;9.252;2022-07-12T02:31:30;14.80;81.40
70734;DHT22;58320;48.804;9.252;2022-07-12T02:33:56;14.70;81.60
70734;DHT22;58320;48.804;9.252;2022-07-12T02:36:21;14.70;81.60
70734;DHT22;58320;48.804;9.252;2022-07-12T02:38:48;14.70;81.40
70734;DHT22;58320;48.804;9.252;2022-07-12T02:41:14;14.70;81.40
70734;DHT22;58320;48.804;9.252;2022-07-12T02:43:40;14.60;81.70
70734;DHT22;58320;48.804;9.252;2022-07-12T02:46:10;14.60;81.60
70734;DHT22;58320;48.804;9.252;2022-07-12T02:48:38;14.50;81.60
70734;DHT22;58320;48.804;9.252;2022-07-12T02:51:05;14.50;81.70
70734;DHT22;58320;48.804;9.252;2022-07-12T02:53:33;14.50;81.80
70734;DHT22;58320;48.804;9.252;2022-07-12T02:56:00;14.50;81.80
70734;DHT22;58320;48.804;9.252;2022-07-12T02:58:25;14.40;81.80
70734;DHT22;58320;48.804;9.252;2022-07-12T03:00:51;14.40;82.00
70734;DHT22;58320;48.804;9.252;2022-07-12T03:03:17;14.40;82.00
70734;DHT22;58320;48.804;9.252;2022-07-12T03:05:43;14.40;82.30
70734;DHT22;58320;48.804;9.252;2022-07-12T03:08:10;14.30;82.30
70734;DHT22;58320;48.804;9.252;2022-07-12T03:10:37;14.30;82.30
70734;DHT22;58320;48.804;9.252;2022-07-12T03:13:03;14.30;82.40
70734;DHT22;58320;48.804;9.252;2022-07-12T03:15:30;14.30;82.50
70734;DHT22;58320;48.804;9.252;2022-07-12T03:17:57;14.30;82.60
70734;DHT22;58320;48.804;9.252;2022-07-12T03:20:24;14.30;82.80
70734;DHT22;58320;48.804;9.252;2022-07-12T03:22:50;14.20;83.00
70734;DHT22;58320;48.804;9.252;2022-07-12T03:25:18;14.20;83.10
70734;DHT22;58320;48.804;9.252;2022-07-12T03:27:44;14.30;83.10
70734;DHT22;58320;48.804;9.252;2022-07-12T03:30:11;14.20;83.30
70734;DHT22;58320;48.804;9.252;2022-07-12T03:32:37;14.30;83.30
70734;DHT22;58320;48.804;9.252;2022-07-12T03:35:04;14.30;83.00
70734;DHT22;58320;48.804;9.252;2022-07-12T03:37:46;14.30;83.10
70734;DHT22;58320;48.804;9.252;2022-07-12T03:40:14;14.20;83.20
70734;DHT22;58320;48.804;9.252;2022-07-12T03:42:45;14.20;83.50
70734;DHT22;58320;48.804;9.252;2022-07-12T03:45:12;14.10;83.80
70734;DHT22;58320;48.804;9.252;2022-07-12T03:47:39;14.20;84.10
70734;DHT22;58320;48.804;9.252;2022-07-12T03:50:08;14.20;84.40
70734;DHT22;58320;48.804;9.252;2022-07-12T03:52:36;14.20;84.40
70734;DHT22;58320;48.804;9.252;2022-07-12T03:55:02;14.20;84.10
70734;DHT22;58320;48.804;9.252;2022-07-12T03:57:29;14.20;84.00
70734;DHT22;58320;48.804;9.252;2022-07-12T03:59:55;14.30;83.80
70734;DHT22;58320;48.804;9.252;2022-07-12T04:02:21;14.30;83.70
70734;DHT22;58320;48.804;9.252;2022-07-12T04:04:48;14.30;83.70
70734;DHT22;58320;48.804;9.252;2022-07-12T04:07:14;14.30;83.40
70734;DHT22;58320;48.804;9.252;2022-07-12T04:09:40;14.40;83.10
70734;DHT22;58320;48.804;9.252;2022-07-12T04:12:06;14.50;83.00
70734;DHT22;58320;48.804;9.252;2022-07-12T04:14:32;14.60;82.60
70734;DHT22;58320;48.804;9.252;2022-07-12T04:16:58;14.80;82.10
70734;DHT22;58320;48.804;9.252;2022-07-12T04:19:24;14.90;81.60
70734;DHT22;58320;48.804;9.252;2022-07-12T04:21:54;15.00;81.20
70734;DHT22;58320;48.804;9.252;2022-07-12T04:24:21;15.00;80.80
70734;DHT22;58320;48.804;9.252;2022-07-12T04:26:48;15.10;80.70
70734;DHT22;58320;48.804;9.252;2022-07-12T04:29:18;15.20;80.80
70734;DHT22;58320;48.804;9.252;2022-07-12T04:31:44;15.20;80.70
70734;DHT22;58320;48.804;9.252;2022-07-12T04:34:10;15.20;80.80
70734;DHT22;58320;48.804;9.252;2022-07-12T04:36:36;15.20;80.70
70734;DHT22;58320;48.804;9.252;2022-07-12T04:39:03;15.20;80.70
70734;DHT22;58320;48.804;9.252;2022-07-12T04:41:29;15.10;80.90
70734;DHT22;58320;48.804;9.252;2022-07-12T04:43:55;15.10;81.30
70734;DHT22;58320;48.804;9.252;2022-07-12T04:46:20;15.10;81.40
70734;DHT22;58320;48.804;9.252;2022-07-12T04:48:46;15.10;81.30
70734;DHT22;58320;48.804;9.252;2022-07-12T04:51:12;15.10;81.20
70734;DHT22;58320;48.804;9.252;2022-07-12T04:53:40;15.30;80.90
70734;DHT22;58320;48.804;9.252;2022-07-12T04:56:06;15.30;80.70
70734;DHT22;58320;48.804;9.252;2022-07-12T04:58:32;15.40;80.60
70734;DHT22;58320;48.804;9.252;2022-07-12T05:00:57;15.50;80.40
70734;DHT22;58320;48.804;9.252;2022-07-12T05:03:23;15.60;80.10
70734;DHT22;58320;48.804;9.252;2022-07-12T05:05:53;15.70;79.80
70734;DHT22;58320;48.804;9.252;2022-07-12T05:08:20;15.80;79.30
70734;DHT22;58320;48.804;9.252;2022-07-12T05:10:46;15.90;78.90
70734;DHT22;58320;48.804;9.252;2022-07-12T05:13:12;16.00;78.30
70734;DHT22;58320;48.804;9.252;2022-07-12T05:15:37;16.10;78.40
70734;DHT22;58320;48.804;9.252;2022-07-12T05:18:03;16.20;77.80
70734;DHT22;58320;48.804;9.252;2022-07-12T05:20:30;16.30;77.80
70734;DHT22;58320;48.804;9.252;2022-07-12T05:22:56;16.40;77.50
70734;DHT22;58320;48.804;9.252;2022-07-12T05:25:21;16.50;77.20
70734;DHT22;58320;48.804;9.252;2022-07-12T05:27:47;16.60;76.70
70734;DHT22;58320;48.804;9.252;2022-07-12T05:30:13;16.60;76.00
70734;DHT22;58320;48.804;9.252;2022-07-12T05:32:39;16.70;75.10
70734;DHT22;58320;48.804;9.252;2022-07-12T05:35:05;16.80;75.00
70734;DHT22;58320;48.804;9.252;2022-07-12T05:37:31;17.00;73.90
70734;DHT22;58320;48.804;9.252;2022-07-12T05:39:57;17.00;73.40
70734;DHT22;58320;48.804;9.252;2022-07-12T05:42:23;17.10;73.30
70734;DHT22;58320;48.804;9.252;2022-07-12T05:44:49;17.20;72.40
70734;DHT22;58320;48.804;9.252;2022-07-12T05:47:14;17.30;72.20
70734;DHT22;58320;48.804;9.252;2022-07-12T05:49:40;17.40;71.60
70734;DHT22;58320;48.804;9.252;2022-07-12T05:52:06;17.40;71.60
70734;DHT22;58320;48.804;9.252;2022-07-12T05:54:51;17.50;71.70
70734;DHT22;58320;48.804;9.252;2022-07-12T05:57:17;17.60;71.30
70734;DHT22;58320;48.804;9.252;2022-07-12T05:59:43;17.70;70.70
70734;DHT22;58320;48.804;9.252;2022-07-12T06:02:09;17.80;71.20
70734;DHT22;58320;48.804;9.252;2022-07-12T06:04:35;18.00;70.60
70734;DHT22;58320;48.804;9.252;2022-07-12T06:07:02;18.00;70.30
70734;DHT22;58320;48.804;9.252;2022-07-12T06:09:28;18.20;69.60
70734;DHT22;58320;48.804;9.252;2022-07-12T06:11:53;18.30;69.00
70734;DHT22;58320;48.804;9.252;2022-07-12T06:14:19;18.40;68.10
70734;DHT22;58320;48.804;9.252;2022-07-12T06:16:45;18.50;67.20
70734;DHT22;58320;48.804;9.252;2022-07-12T06:19:11;18.60;67.10
70734;DHT22;58320;48.804;9.252;2022-07-12T06:21:37;18.60;65.90
70734;DHT22;58320;48.804;9.252;2022-07-12T06:24:03;18.70;65.70
70734;DHT22;58320;48.804;9.252;2022-07-12T06:26:29;18.70;65.60
70734;DHT22;58320;48.804;9.252;2022-07-12T06:28:54;18.80;65.30
70734;DHT22;58320;48.804;9.252;2022-07-12T06:31:20;18.90;64.80
70734;DHT22;58320;48.804;9.252;2022-07-12T06:33:49;19.00;65.20
70734;DHT22;58320;48.804;9.252;2022-07-12T06:36:15;19.10;64.70
70734;DHT22;58320;48.804;9.252;2022-07-12T06:38:40;19.20;63.40
70734;DHT22;58320;48.804;9.252;2022-07-12T06:41:06;19.40;63.00
70734;DHT22;58320;48.804;9.252;2022-07-12T06:43:32;19.50;61.90
70734;DHT22;58320;48.804;9.252;2022-07-12T06:45:58;19.60;61.30
70734;DHT22;58320;48.804;9.252;2022-07-12T06:48:24;19.70;60.90
70734;DHT22;58320;48.804;9.252;2022-07-12T06:50:50;19.80;60.40
70734;DHT22;58320;48.804;9.252;2022-07-12T06:53:16;19.90;59.70
70734;DHT22;58320;48.804;9.252;2022-07-12T06:55:44;20.00;60.10
70734;DHT22;58320;48.804;9.252;2022-07-12T06:58:10;20.00;60.20
70734;DHT22;58320;48.804;9.252;2022-07-12T07:00:36;20.10;59.70
70734;DHT22;58320;48.804;9.252;2022-07-12T07:03:05;20.10;59.30
70734;DHT22;58320;48.804;9.252;2022-07-12T07:05:31;20.20;58.80
70734;DHT22;58320;48.804;9.252;2022-07-12T07:07:57;20.30;58.20
70734;DHT22;58320;48.804;9.252;2022-07-12T07:10:22;20.50;58.00
70734;DHT22;58320;48.804;9.252;2022-07-12T07:12:48;20.60;58.00
70734;DHT22;58320;48.804;9.252;2022-07-12T07:15:14;20.70;57.40
70734;DHT22;58320;48.804;9.252;2022-07-12T07:17:42;20.70;57.60
70734;DHT22;58320;48.804;9.252;2022-07-12T07:20:09;20.60;58.00
70734;DHT22;58320;48.804;9.252;2022-07-12T07:22:36;20.60;58.40
70734;DHT22;58320;48.804;9.252;2022-07-12T07:25:03;20.50;57.50
70734;DHT22;58320;48.804;9.252;2022-07-12T07:27:29;20.50;58.40
70734;DHT22;58320;48.804;9.252;2022-07-12T07:29:55;20.60;57.40
70734;DHT22;58320;48.804;9.252;2022-07-12T07:32:39;20.70;56.00
70734;DHT22;58320;48.804;9.252;2022-07-12T07:35:05;20.90;56.90
70734;DHT22;58320;48.804;9.252;2022-07-12T07:37:32;21.20;56.20
70734;DHT22;58320;48.804;9.252;2022-07-12T07:39:59;21.40;54.40
70734;DHT22;58320;48.804;9.252;2022-07-12T07:42:24;21.40;54.00
70734;DHT22;58320;48.804;9.252;2022-07-12T07:44:50;21.40;55.40
70734;DHT22;58320;48.804;9.252;2022-07-12T07:47:16;21.40;54.90
70734;DHT22;58320;48.804;9.252;2022-07-12T07:49:42;21.60;54.20
70734;DHT22;58320;48.804;9.252;2022-07-12T07:52:08;21.80;53.90
70734;DHT22;58320;48.804;9.252;2022-07-12T07:54:34;22.00;53.00
70734;DHT22;58320;48.804;9.252;2022-07-12T07:56:59;22.10;52.40
70734;DHT22;58320;48.804;9.252;2022-07-12T07:59:25;22.30;52.70
70734;DHT22;58320;48.804;9.252;2022-07-12T08:01:51;22.30;52.20
70734;DHT22;58320;48.804;9.252;2022-07-12T08:04:21;22.30;53.20
70734;DHT22;58320;48.804;9.252;2022-07-12T08:06:48;22.20;52.10
70734;DHT22;58320;48.804;9.252;2022-07-12T08:09:15;22.20;53.40
70734;DHT22;58320;48.804;9.252;2022-07-12T08:11:42;22.40;53.00
70734;DHT22;58320;48.804;9.252;2022-07-12T08:14:08;22.40;52.90
70734;DHT22;58320;48.804;9.252;2022-07-12T08:16:36;22.60;53.10
70734;DHT22;58320;48.804;9.252;2022-07-12T08:19:03;22.60;52.30
70734;DHT22;58320;48.804;9.252;2022-07-12T08:21:29;22.50;51.70
70734;DHT22;58320;48.804;9.252;2022-07-12T08:23:55;22.40;51.20
70734;DHT22;58320;48.804;9.252;2022-07-12T08:26:21;22.20;51.80
70734;DHT22;58320;48.804;9.252;2022-07-12T08:28:47;22.20;50.70
70734;DHT22;58320;48.804;9.252;2022-07-12T08:31:13;22.30;51.00
70734;DHT22;58320;48.804;9.252;2022-07-12T08:33:40;22.40;50.30
70734;DHT22;58320;48.804;9.252;2022-07-12T08:36:07;22.60;50.70
70734;DHT22;58320;48.804;9.252;2022-07-12T08:38:35;22.80;50.40
70734;DHT22;58320;48.804;9.252;2022-07-12T08:41:03;23.00;50.80
70734;DHT22;58320;48.804;9.252;2022-07-12T08:43:36;23.20;50.00
70734;DHT22;58320;48.804;9.252;2022-07-12T08:46:06;23.20;48.20
70734;DHT22;58320;48.804;9.252;2022-07-12T08:48:37;22.90;48.30
70734;DHT22;58320;48.804;9.252;2022-07-12T08:51:10;22.90;48.10
70734;DHT22;58320;48.804;9.252;2022-07-12T08:53:37;22.90;49.40
70734;DHT22;58320;48.804;9.252;2022-07-12T08:56:04;23.00;47.40
70734;DHT22;58320;48.804;9.252;2022-07-12T08:58:30;23.00;47.40
70734;DHT22;58320;48.804;9.252;2022-07-12T09:00:56;23.00;48.10
70734;DHT22;58320;48.804;9.252;2022-07-12T09:03:23;23.10;48.00
70734;DHT22;58320;48.804;9.252;2022-07-12T09:05:53;23.20;48.00
70734;DHT22;58320;48.804;9.252;2022-07-12T09:08:32;23.50;47.10
70734;DHT22;58320;48.804;9.252;2022-07-12T09:10:59;23.40;47.30
70734;DHT22;58320;48.804;9.252;2022-07-12T09:16:22;22.90;48.10
70734;DHT22;58320;48.804;9.252;2022-07-12T09:18:50;22.60;47.60
70734;DHT22;58320;48.804;9.252;2022-07-12T09:21:24;22.50;47.30
70734;DHT22;58320;48.804;9.252;2022-07-12T09:23:58;22.30;48.30
70734;DHT22;58320;48.804;9.252;2022-07-12T09:26:30;22.30;48.90
70734;DHT22;58320;48.804;9.252;2022-07-12T09:29:05;22.50;49.30
70734;DHT22;58320;48.804;9.252;2022-07-12T09:31:43;22.80;47.10
70734;DHT22;58320;48.804;9.252;2022-07-12T09:34:30;23.00;47.30
70734;DHT22;58320;48.804;9.252;2022-07-12T09:37:19;22.90;47.30
70734;DHT22;58320;48.804;9.252;2022-07-12T09:39:47;23.10;48.00
70734;DHT22;58320;48.804;9.252;2022-07-12T09:42:13;23.50;47.10
70734;DHT22;58320;48.804;9.252;2022-07-12T09:44:40;23.90;46.30
70734;DHT22;58320;48.804;9.252;2022-07-12T09:47:12;23.90;46.20
70734;DHT22;58320;48.804;9.252;2022-07-12T09:49:42;24.10;45.40
70734;DHT22;58320;48.804;9.252;2022-07-12T09:52:28;24.40;44.30
70734;DHT22;58320;48.804;9.252;2022-07-12T09:54:55;24.80;44.60
70734;DHT22;58320;48.804;9.252;2022-07-12T09:57:31;25.00;43.10
70734;DHT22;58320;48.804;9.252;2022-07-12T09:59:59;25.20;44.70
70734;DHT22;58320;48.804;9.252;2022-07-12T10:02:26;25.40;43.50
70734;DHT22;58320;48.804;9.252;2022-07-12T10:04:54;25.50;43.50
70734;DHT22;58320;48.804;9.252;2022-07-12T10:07:20;25.60;43.80
70734;DHT22;58320;48.804;9.252;2022-07-12T10:09:52;25.70;42.00
70734;DHT22;58320;48.804;9.252;2022-07-12T10:12:21;25.40;43.40
70734;DHT22;58320;48.804;9.252;2022-07-12T10:14:53;25.30;44.30
70734;DHT22;58320;48.804;9.252;2022-07-12T10:17:23;25.40;44.80
70734;DHT22;58320;48.804;9.252;2022-07-12T10:19:50;25.50;43.00
70734;DHT22;58320;48.804;9.252;2022-07-12T10:22:39;25.30;41.90
70734;DHT22;58320;48.804;9.252;2022-07-12T10:27:53;25.00;43.30
70734;DHT22;58320;48.804;9.252;2022-07-12T10:30:21;25.20;44.40
70734;DHT22;58320;48.804;9.252;2022-07-12T10:32:49;25.50;43.40
70734;DHT22;58320;48.804;9.252;2022-07-12T10:35:24;25.80;42.60
70734;DHT22;58320;48.804;9.252;2022-07-12T10:40:39;25.90;42.50
70734;DHT22;58320;48.804;9.252;2022-07-12T10:48:02;26.20;40.90
70734;DHT22;58320;48.804;9.252;2022-07-12T10:58:32;25.70;42.30
70734;DHT22;58320;48.804;9.252;2022-07-12T11:01:00;25.80;42.20
70734;DHT22;58320;48.804;9.252;2022-07-12T11:06:09;26.10;41.70
70734;DHT22;58320;48.804;9.252;2022-07-12T11:08:48;26.10;42.90
70734;DHT22;58320;48.804;9.252;2022-07-12T11:11:16;26.30;41.70
70734;DHT22;58320;48.804;9.252;2022-07-12T11:13:43;26.50;40.90
70734;DHT22;58320;48.804;9.252;2022-07-12T11:16:09;26.70;41.30
70734;DHT22;58320;48.804;9.252;2022-07-12T11:18:35;26.80;41.60
70734;DHT22;58320;48.804;9.252;2022-07-12T11:21:03;26.70;40.60
70734;DHT22;58320;48.804;9.252;2022-07-12T11:23:30;26.20;41.20
70734;DHT22;58320;48.804;9.252;2022-07-12T11:25:57;25.90;41.60
70734;DHT22;58320;48.804;9.252;2022-07-12T11:28:28;25.80;42.00
70734;DHT22;58320;48.804;9.252;2022-07-12T11:31:08;26.00;41.70
70734;DHT22;58320;48.804;9.252;2022-07-12T11:33:38;26.00;41.10
70734;DHT22;58320;48.804;9.252;2022-07-12T11:36:07;26.40;42.20
70734;DHT22;58320;48.804;9.252;2022-07-12T11:38:35;27.40;39.80
70734;DHT22;58320;48.804;9.252;2022-07-12T11:41:07;28.80;38.10
70734;DHT22;58320;48.804;9.252;2022-07-12T11:43:34;29.90;35.70
70734;DHT22;58320;48.804;9.252;2022-07-12T11:46:03;30.90;33.80
70734;DHT22;58320;48.804;9.252;2022-07-12T11:48:30;31.80;33.10
70734;DHT22;58320;48.804;9.252;2022-07-12T11:51:04;32.70;32.10
70734;DHT22;58320;48.804;9.252;2022-07-12T11:53:32;33.20;30.80
70734;DHT22;58320;48.804;9.252;2022-07-12T11:56:00;33.10;31.00
70734;DHT22;58320;48.804;9.252;2022-07-12T11:58:27;33.20;30.50
70734;DHT22;58320;48.804;9.252;2022-07-12T12:00:56;33.00;31.20
70734;DHT22;58320;48.804;9.252;2022-07-12T12:03:22;33.20;31.20
70734;DHT22;58320;48.804;9.252;2022-07-12T12:05:51;33.30;30.80
70734;DHT22;58320;48.804;9.252;2022-07-12T12:08:18;33.40;31.00
70734;DHT22;58320;48.804;9.252;2022-07-12T12:10:56;33.80;30.50
70734;DHT22;58320;48.804;9.252;2022-07-12T12:13:25;34.20;30.00
70734;DHT22;58320;48.804;9.252;2022-07-12T12:16:00;34.30;29.60
70734;DHT22;58320;48.804;9.252;2022-07-12T12:18:32;34.40;29.60
70734;DHT22;58320;48.804;9.252;2022-07-12T12:21:08;34.20;29.70
70734;DHT22;58320;48.804;9.252;2022-07-12T12:23:36;34.70;29.90
70734;DHT22;58320;48.804;9.252;2022-07-12T12:26:14;35.00;29.50
70734;DHT22;58320;48.804;9.252;2022-07-12T12:28:52;35.60;28.30
70734;DHT22;58320;48.804;9.252;2022-07-12T12:34:18;36.40;27.00
70734;DHT22;58320;48.804;9.252;2022-07-12T12:36:44;36.40;27.10
70734;DHT22;58320;48.804;9.252;2022-07-12T12:39:10;36.60;26.90
70734;DHT22;58320;48.804;9.252;2022-07-12T12:41:40;36.80;26.10
70734;DHT22;58320;48.804;9.252;2022-07-12T12:44:07;36.50;25.60
70734;DHT22;58320;48.804;9.252;2022-07-12T12:46:52;36.10;26.80
70734;DHT22;58320;48.804;9.252;2022-07-12T12:52:11;36.50;26.80
70734;DHT22;58320;48.804;9.252;2022-07-12T12:54:37;36.70;26.10
70734;DHT22;58320;48.804;9.252;2022-07-12T12:57:05;36.90;26.50
70734;DHT22;58320;48.804;9.252;2022-07-12T12:59:32;37.40;26.80
70734;DHT22;58320;48.804;9.252;2022-07-12T13:01:58;37.60;26.20
70734;DHT22;58320;48.804;9.252;2022-07-12T13:04:29;37.10;26.60
70734;DHT22;58320;48.804;9.252;2022-07-12T13:06:56;36.20;27.40
70734;DHT22;58320;48.804;9.252;2022-07-12T13:09:22;35.90;27.50
70734;DHT22;58320;48.804;9.252;2022-07-12T13:11:49;35.70;27.30
70734;DHT22;58320;48.804;9.252;2022-07-12T13:14:15;35.70;27.30
70734;DHT22;58320;48.804;9.252;2022-07-12T13:16:41;35.60;27.00
70734;DHT22;58320;48.804;9.252;2022-07-12T13:19:07;36.00;27.30
70734;DHT22;58320;48.804;9.252;2022-07-12T13:21:33;36.50;26.80
70734;DHT22;58320;48.804;9.252;2022-07-12T13:23:59;36.80;26.80
70734;DHT22;58320;48.804;9.252;2022-07-12T13:26:25;36.90;26.80
70734;DHT22;58320;48.804;9.252;2022-07-12T13:28:53;37.00;26.40
70734;DHT22;58320;48.804;9.252;2022-07-12T13:31:19;37.30;26.10
70734;DHT22;58320;48.804;9.252;2022-07-12T13:33:45;37.40;26.30
70734;DHT22;58320;48.804;9.252;2022-07-12T13:36:12;37.00;26.50
70734;DHT22;58320;48.804;9.252;2022-07-12T13:38:38;36.40;27.40
70734;DHT22;58320;48.804;9.252;2022-07-12T13:41:04;36.20;27.90
70734;DHT22;58320;48.804;9.252;2022-07-12T13:43:31;36.60;26.60
70734;DHT22;58320;48.804;9.252;2022-07-12T13:45:57;36.40;27.20
70734;DHT22;58320;48.804;9.252;2022-07-12T13:48:26;36.90;26.60
70734;DHT22;58320;48.804;9.252;2022-07-12T13:50:53;36.90;26.80
70734;DHT22;58320;48.804;9.252;2022-07-12T13:53:19;36.90;27.00
70734;DHT22;58320;48.804;9.252;2022-07-12T13:55:49;36.80;26.40
70734;DHT22;58320;48.804;9.252;2022-07-12T13:58:16;37.20;26.60
70734;DHT22;58320;48.804;9.252;2022-07-12T14:00:45;37.80;25.90
70734;DHT22;58320;48.804;9.252;2022-07-12T14:03:12;38.00;25.50
70734;DHT22;58320;48.804;9.252;2022-07-12T14:05:39;37.80;26.30
70734;DHT22;58320;48.804;9.252;2022-07-12T14:08:09;37.70;25.90
70734;DHT22;58320;48.804;9.252;2022-07-12T14:10:35;37.80;25.70
70734;DHT22;58320;48.804;9.252;2022-07-12T14:13:02;37.30;25.50
70734;DHT22;58320;48.804;9.252;2022-07-12T14:15:32;37.20;26.60
70734;DHT22;58320;48.804;9.252;2022-07-12T14:18:06;37.40;26.40
70734;DHT22;58320;48.804;9.252;2022-07-12T14:20:35;37.20;26.90
70734;DHT22;58320;48.804;9.252;2022-07-12T14:23:05;37.20;26.10
70734;DHT22;58320;48.804;9.252;2022-07-12T14:25:37;36.50;26.50
70734;DHT22;58320;48.804;9.252;2022-07-12T14:28:04;36.00;27.50
70734;DHT22;58320;48.804;9.252;2022-07-12T14:30:34;36.50;27.30
70734;DHT22;58320;48.804;9.252;2022-07-12T14:33:00;37.40;26.30
70734;DHT22;58320;48.804;9.252;2022-07-12T14:35:27;38.50;25.50
70734;DHT22;58320;48.804;9.252;2022-07-12T14:37:55;39.30;24.80
70734;DHT22;58320;48.804;9.252;2022-07-12T14:40:21;39.70;24.10
70734;DHT22;58320;48.804;9.252;2022-07-12T14:42:47;39.50;24.20
70734;DHT22;58320;48.804;9.252;2022-07-12T14:45:12;39.60;24.40
70734;DHT22;58320;48.804;9.252;2022-07-12T14:47:39;40.10;23.90
70734;DHT22;58320;48.804;9.252;2022-07-12T14:50:05;40.30;23.70
70734;DHT22;58320;48.804;9.252;2022-07-12T14:52:32;40.80;23.50
70734;DHT22;58320;48.804;9.252;2022-07-12T14:54:58;41.30;23.20
70734;DHT22;58320;48.804;9.252;2022-07-12T14:57:24;41.40;22.60
70734;DHT22;58320;48.804;9.252;2022-07-12T14:59:50;40.80;22.90
70734;DHT22;58320;48.804;9.252;2022-07-12T15:02:17;39.90;23.60
70734;DHT22;58320;48.804;9.252;2022-07-12T15:04:43;39.50;23.80
70734;DHT22;58320;48.804;9.252;2022-07-12T15:07:10;39.10;24.20
70734;DHT22;58320;48.804;9.252;2022-07-12T15:09:35;39.40;24.10
70734;DHT22;58320;48.804;9.252;2022-07-12T15:12:01;39.10;23.60
70734;DHT22;58320;48.804;9.252;2022-07-12T15:14:28;40.00;23.50
70734;DHT22;58320;48.804;9.252;2022-07-12T15:16:53;41.40;22.60
70734;DHT22;58320;48.804;9.252;2022-07-12T15:19:19;42.00;22.00
70734;DHT22;58320;48.804;9.252;2022-07-12T15:21:45;42.20;21.90
70734;DHT22;58320;48.804;9.252;2022-07-12T15:24:11;42.40;21.90
70734;DHT22;58320;48.804;9.252;2022-07-12T15:26:37;42.70;21.40
70734;DHT22;58320;48.804;9.252;2022-07-12T15:29:06;42.40;21.90
70734;DHT22;58320;48.804;9.252;2022-07-12T15:31:32;42.90;21.70
70734;DHT22;58320;48.804;9.252;2022-07-12T15:33:58;43.60;21.00
70734;DHT22;58320;48.804;9.252;2022-07-12T15:36:25;43.80;20.90
70734;DHT22;58320;48.804;9.252;2022-07-12T15:38:51;43.60;21.20
70734;DHT22;58320;48.804;9.252;2022-07-12T15:41:17;43.60;20.70
70734;DHT22;58320;48.804;9.252;2022-07-12T15:43:43;43.10;20.80
70734;DHT22;58320;48.804;9.252;2022-07-12T15:46:10;42.30;21.40
70734;DHT22;58320;48.804;9.252;2022-07-12T15:48:37;41.20;22.30
70734;DHT22;58320;48.804;9.252;2022-07-12T15:51:05;41.20;22.50
70734;DHT22;58320;48.804;9.252;2022-07-12T15:53:31;41.90;22.40
70734;DHT22;58320;48.804;9.252;2022-07-12T15:56:08;42.50;21.80
70734;DHT22;58320;48.804;9.252;2022-07-12T15:58:36;42.90;21.40
70734;DHT22;58320;48.804;9.252;2022-07-12T16:01:03;43.90;20.60
70734;DHT22;58320;48.804;9.252;2022-07-12T16:03:30;43.90;20.40